sensor_id;sensor_type;location;lat;lon;timestamp;pressure;altitude;pressure_sealevel;temperature;humidity
55604;BME280;41468;48.838;9.330;2023-02-15T00:00:38;99672.00;;;1.54;93.90
55604;BME280;41468;48.838;9.330;2023-02-15T00:03:04;99673.31;;;1.62;93.28
55604;BME280;41468;48.838;9.330;2023-02-15T00:05:31;99670.41;;;1.53;92.93
55604;BME280;41468;48.838;9.330;2023-02-15T00:07:58;99663.41;;;1.42;92.13
55604;BME280;41468;48.838;9.330;2023-02-15T00:10:24;99671.66;;;1.71;92.41
55604;BME280;41468;48.838;9.330;2023-02-15T00:12:52;99674.84;;;1.84;91.84
55604;BME280;41468;48.838;9.330;2023-02-15T00:15:18;99668.94;;;1.82;91.51
55604;BME280;41468;48.838;9.330;2023-02-15T00:17:50;99665.19;;;1.77;91.36
55604;BME280;41468;48.838;9.330;2023-02-15T00:20:16;99659.72;;;1.88;90.49
55604;BME280;41468;48.838;9.330;2023-02-15T00:22:44;99651.13;;;1.91;90.24
55604;BME280;41468;48.838;9.330;2023-02-15T00:25:11;99654.13;;;1.79;89.99
55604;BME280;41468;48.838;9.330;2023-02-15T00:27:37;99654.25;;;1.53;90.25
55604;BME280;41468;48.838;9.330;2023-02-15T00:30:04;99654.44;;;1.72;90.24
55604;BME280;41468;48.838;9.330;2023-02-15T00:32:32;99654.19;;;1.64;89.91
55604;BME280;41468;48.838;9.330;2023-02-15T00:34:58;99645.38;;;1.48;90.19
55604;BME280;41468;48.838;9.330;2023-02-15T00:37:25;99657.28;;;1.26;90.53
55604;BME280;41468;48.838;9.330;2023-02-15T00:39:51;99655.91;;;1.29;91.15
55604;BME280;41468;48.838;9.330;2023-02-15T00:42:18;99651.09;;;1.21;91.71
55604;BME280;41468;48.838;9.330;2023-02-15T00:44:45;99660.00;;;1.01;92.05
55604;BME280;41468;48.838;9.330;2023-02-15T00:47:11;99653.03;;;0.79;92.51
55604;BME280;41468;48.838;9.330;2023-02-15T00:49:38;99653.28;;;0.93;92.50
55604;BME280;41468;48.838;9.330;2023-02-15T00:52:04;99643.06;;;0.95;93.03
55604;BME280;41468;48.838;9.330;2023-02-15T00:54:31;99642.22;;;1.20;92.39
55604;BME280;41468;48.838;9.330;2023-02-15T00:56:57;99645.41;;;1.38;91.56
55604;BME280;41468;48.838;9.330;2023-02-15T00:59:24;99661.34;;;1.08;90.14
55604;BME280;41468;48.838;9.330;2023-02-15T01:01:50;99654.09;;;0.88;91.10
55604;BME280;41468;48.838;9.330;2023-02-15T01:04:17;99657.84;;;1.08;90.69
55604;BME280;41468;48.838;9.330;2023-02-15T01:06:44;99641.09;;;1.31;91.10
55604;BME280;41468;48.838;9.330;2023-02-15T01:09:10;99639.72;;;1.49;90.47
55604;BME280;41468;48.838;9.330;2023-02-15T01:11:38;99646.94;;;1.59;89.34
55604;BME280;41468;48.838;9.330;2023-02-15T01:14:05;99646.94;;;1.64;88.88
55604;BME280;41468;48.838;9.330;2023-02-15T01:16:31;99637.38;;;1.22;90.74
55604;BME280;41468;48.838;9.330;2023-02-15T01:18:58;99641.16;;;1.16;88.40
55604;BME280;41468;48.838;9.330;2023-02-15T01:21:25;99642.81;;;0.92;88.12
55604;BME280;41468;48.838;9.330;2023-02-15T01:23:52;99646.88;;;0.84;89.24
55604;BME280;41468;48.838;9.330;2023-02-15T01:26:19;99657.63;;;0.79;90.08
55604;BME280;41468;48.838;9.330;2023-02-15T01:28:46;99647.66;;;0.79;89.27
55604;BME280;41468;48.838;9.330;2023-02-15T01:31:15;99641.22;;;0.60;90.05
55604;BME280;41468;48.838;9.330;2023-02-15T01:33:43;99642.81;;;0.46;91.47
55604;BME280;41468;48.838;9.330;2023-02-15T01:36:11;99643.38;;;0.73;90.95
55604;BME280;41468;48.838;9.330;2023-02-15T01:38:37;99644.97;;;0.95;90.31
55604;BME280;41468;48.838;9.330;2023-02-15T01:41:05;99650.34;;;0.84;89.19
55604;BME280;41468;48.838;9.330;2023-02-15T01:43:58;99646.56;;;1.01;88.18
55604;BME280;41468;48.838;9.330;2023-02-15T01:46:35;99644.97;;;0.69;90.72
55604;BME280;41468;48.838;9.330;2023-02-15T01:49:23;99644.97;;;0.79;90.55
55604;BME280;41468;48.838;9.330;2023-02-15T01:51:52;99643.91;;;0.65;89.86
55604;BME280;41468;48.838;9.330;2023-02-15T01:54:23;99641.47;;;0.84;90.33
55604;BME280;41468;48.838;9.330;2023-02-15T01:57:09;99640.13;;;0.81;90.44
55604;BME280;41468;48.838;9.330;2023-02-15T01:59:38;99642.28;;;0.74;90.02
55604;BME280;41468;48.838;9.330;2023-02-15T02:02:07;99634.22;;;0.54;90.38
55604;BME280;41468;48.838;9.330;2023-02-15T02:04:41;99628.31;;;0.47;91.18
55604;BME280;41468;48.838;9.330;2023-02-15T02:07:10;99628.31;;;0.47;90.74
55604;BME280;41468;48.838;9.330;2023-02-15T02:09:38;99621.03;;;0.32;91.66
55604;BME280;41468;48.838;9.330;2023-02-15T02:12:06;99626.69;;;0.30;91.46
55604;BME280;41468;48.838;9.330;2023-02-15T02:14:33;99625.06;;;0.29;91.76
55604;BME280;41468;48.838;9.330;2023-02-15T02:17:35;99623.19;;;0.14;91.27
55604;BME280;41468;48.838;9.330;2023-02-15T02:20:26;99619.16;;;0.17;91.26
55604;BME280;41468;48.838;9.330;2023-02-15T02:33:57;99606.78;;;0.16;91.25
55604;BME280;41468;48.838;9.330;2023-02-15T02:36:40;99610.00;;;0.13;91.80
55604;BME280;41468;48.838;9.330;2023-02-15T02:42:12;99619.19;;;0.53;88.72
55604;BME280;41468;48.838;9.330;2023-02-15T02:44:49;99620.75;;;0.13;89.37
55604;BME280;41468;48.838;9.330;2023-02-15T02:47:23;99621.81;;;0.02;91.15
55604;BME280;41468;48.838;9.330;2023-02-15T02:49:59;99622.09;;;0.10;90.80
55604;BME280;41468;48.838;9.330;2023-02-15T02:52:46;99615.66;;;0.32;90.89
55604;BME280;41468;48.838;9.330;2023-02-15T02:55:30;99624.25;;;0.03;91.57
55604;BME280;41468;48.838;9.330;2023-02-15T02:58:01;99620.47;;;-0.06;91.01
55604;BME280;41468;48.838;9.330;2023-02-15T03:00:41;99619.41;;;0.05;91.68
55604;BME280;41468;48.838;9.330;2023-02-15T03:05:47;99614.84;;;0.06;92.33
55604;BME280;41468;48.838;9.330;2023-02-15T03:08:18;99611.09;;;0.12;92.52
55604;BME280;41468;48.838;9.330;2023-02-15T03:10:51;99607.84;;;-0.01;93.02
55604;BME280;41468;48.838;9.330;2023-02-15T03:13:19;99606.50;;;0.07;92.54
55604;BME280;41468;48.838;9.330;2023-02-15T03:15:48;99600.91;;;0.14;92.31
55604;BME280;41468;48.838;9.330;2023-02-15T03:18:37;99600.88;;;0.04;93.02
55604;BME280;41468;48.838;9.330;2023-02-15T03:21:06;99617.50;;;-0.10;92.81
55604;BME280;41468;48.838;9.330;2023-02-15T03:23:35;99607.53;;;-0.19;92.67
55604;BME280;41468;48.838;9.330;2023-02-15T03:26:05;99606.22;;;-0.12;92.38
55604;BME280;41468;48.838;9.330;2023-02-15T03:28:38;99604.63;;;-0.08;93.52
55604;BME280;41468;48.838;9.330;2023-02-15T03:31:08;99599.25;;;-0.13;94.12
55604;BME280;41468;48.838;9.330;2023-02-15T03:33:41;99605.13;;;-0.21;93.48
55604;BME280;41468;48.838;9.330;2023-02-15T03:41:32;99593.78;;;-0.38;91.07
55604;BME280;41468;48.838;9.330;2023-02-15T03:44:06;99593.50;;;-0.47;91.69
55604;BME280;41468;48.838;9.330;2023-02-15T03:52:13;99595.97;;;-0.30;91.03
55604;BME280;41468;48.838;9.330;2023-02-15T03:54:42;99597.03;;;-0.36;90.19
55604;BME280;41468;48.838;9.330;2023-02-15T04:00:14;99600.41;;;-0.67;91.22
55604;BME280;41468;48.838;9.330;2023-02-15T04:05:44;99606.16;;;-0.37;90.90
55604;BME280;41468;48.838;9.330;2023-02-15T04:08:12;99607.50;;;-0.35;90.82
55604;BME280;41468;48.838;9.330;2023-02-15T04:10:39;99608.53;;;-0.46;89.55
55604;BME280;41468;48.838;9.330;2023-02-15T04:13:30;99603.94;;;-0.56;89.66
55604;BME280;41468;48.838;9.330;2023-02-15T04:15:57;99608.47;;;-0.67;90.05
55604;BME280;41468;48.838;9.330;2023-02-15T04:18:42;99602.28;;;-0.72;90.63
55604;BME280;41468;48.838;9.330;2023-02-15T04:21:29;99604.69;;;-0.65;89.92
55604;BME280;41468;48.838;9.330;2023-02-15T04:24:15;99607.63;;;-0.72;90.73
55604;BME280;41468;48.838;9.330;2023-02-15T04:27:01;99603.00;;;-0.82;89.50
55604;BME280;41468;48.838;9.330;2023-02-15T04:29:29;99607.66;;;-0.67;89.94
55604;BME280;41468;48.838;9.330;2023-02-15T04:31:58;99594.94;;;-0.87;89.72
55604;BME280;41468;48.838;9.330;2023-02-15T04:34:25;99594.97;;;-0.82;90.01
55604;BME280;41468;48.838;9.330;2023-02-15T04:36:52;99596.91;;;-0.72;89.71
55604;BME280;41468;48.838;9.330;2023-02-15T04:39:23;99592.59;;;-0.73;89.35
55604;BME280;41468;48.838;9.330;2023-02-15T04:41:50;99594.19;;;-0.77;89.64
55604;BME280;41468;48.838;9.330;2023-02-15T04:44:17;99596.03;;;-0.88;90.65
55604;BME280;41468;48.838;9.330;2023-02-15T04:46:43;99595.22;;;-0.83;90.50
55604;BME280;41468;48.838;9.330;2023-02-15T04:49:10;99579.72;;;-0.71;90.13
55604;BME280;41468;48.838;9.330;2023-02-15T04:51:36;99586.16;;;-0.77;89.37
55604;BME280;41468;48.838;9.330;2023-02-15T04:54:03;99586.47;;;-0.63;88.22
55604;BME280;41468;48.838;9.330;2023-02-15T04:56:30;99590.19;;;-0.75;89.21
55604;BME280;41468;48.838;9.330;2023-02-15T04:58:57;99581.84;;;-0.73;89.34
55604;BME280;41468;48.838;9.330;2023-02-15T05:01:24;99586.00;;;-0.45;87.57
55604;BME280;41468;48.838;9.330;2023-02-15T05:03:56;99582.44;;;-0.66;87.84
55604;BME280;41468;48.838;9.330;2023-02-15T05:06:23;99580.72;;;-0.87;88.03
55604;BME280;41468;48.838;9.330;2023-02-15T05:08:49;99587.66;;;-0.92;88.21
55604;BME280;41468;48.838;9.330;2023-02-15T05:11:16;99574.19;;;-1.12;87.13
55604;BME280;41468;48.838;9.330;2023-02-15T05:13:43;99575.03;;;-1.01;87.34
55604;BME280;41468;48.838;9.330;2023-02-15T05:16:09;99575.72;;;-1.21;88.11
55604;BME280;41468;48.838;9.330;2023-02-15T05:18:36;99574.25;;;-0.92;90.17
55604;BME280;41468;48.838;9.330;2023-02-15T05:21:03;99569.72;;;-0.91;89.28
55604;BME280;41468;48.838;9.330;2023-02-15T05:23:30;99565.38;;;-1.07;88.43
55604;BME280;41468;48.838;9.330;2023-02-15T05:25:56;99574.03;;;-0.85;88.33
55604;BME280;41468;48.838;9.330;2023-02-15T05:28:42;99574.63;;;-0.68;87.11
55604;BME280;41468;48.838;9.330;2023-02-15T05:31:12;99586.03;;;-0.98;87.27
55604;BME280;41468;48.838;9.330;2023-02-15T05:33:40;99586.59;;;-0.96;87.91
55604;BME280;41468;48.838;9.330;2023-02-15T05:36:07;99582.25;;;-1.07;89.07
55604;BME280;41468;48.838;9.330;2023-02-15T05:38:34;99587.84;;;-1.08;89.91
55604;BME280;41468;48.838;9.330;2023-02-15T05:41:04;99581.47;;;-0.97;89.49
55604;BME280;41468;48.838;9.330;2023-02-15T05:43:31;99591.84;;;-1.11;90.35
55604;BME280;41468;48.838;9.330;2023-02-15T05:45:57;99587.03;;;-1.14;89.40
55604;BME280;41468;48.838;9.330;2023-02-15T05:48:25;99586.13;;;-1.30;89.74
55604;BME280;41468;48.838;9.330;2023-02-15T05:53:31;99582.38;;;-1.29;89.79
55604;BME280;41468;48.838;9.330;2023-02-15T05:55:59;99580.69;;;-1.40;90.00
55604;BME280;41468;48.838;9.330;2023-02-15T05:58:37;99585.53;;;-1.37;90.49
55604;BME280;41468;48.838;9.330;2023-02-15T06:01:22;99594.31;;;-1.47;90.52
55604;BME280;41468;48.838;9.330;2023-02-15T06:03:49;99582.47;;;-1.51;91.04
55604;BME280;41468;48.838;9.330;2023-02-15T06:06:16;99589.47;;;-1.50;90.69
55604;BME280;41468;48.838;9.330;2023-02-15T06:08:43;99580.41;;;-1.44;90.00
55604;BME280;41468;48.838;9.330;2023-02-15T06:11:10;99581.97;;;-1.48;90.07
55604;BME280;41468;48.838;9.330;2023-02-15T06:13:37;99596.94;;;-1.52;89.51
55604;BME280;41468;48.838;9.330;2023-02-15T06:16:05;99595.84;;;-1.56;90.20
55604;BME280;41468;48.838;9.330;2023-02-15T06:18:32;99592.31;;;-1.62;89.58
55604;BME280;41468;48.838;9.330;2023-02-15T06:20:58;99602.81;;;-1.55;89.50
55604;BME280;41468;48.838;9.330;2023-02-15T06:23:25;99609.22;;;-1.61;89.09
55604;BME280;41468;48.838;9.330;2023-02-15T06:25:52;99602.09;;;-1.78;88.24
55604;BME280;41468;48.838;9.330;2023-02-15T06:28:18;99611.41;;;-1.85;88.98
55604;BME280;41468;48.838;9.330;2023-02-15T06:30:45;99600.78;;;-1.75;88.88
55604;BME280;41468;48.838;9.330;2023-02-15T06:33:12;99605.66;;;-1.67;89.22
55604;BME280;41468;48.838;9.330;2023-02-15T06:35:39;99606.31;;;-1.54;89.80
55604;BME280;41468;48.838;9.330;2023-02-15T06:38:05;99612.91;;;-1.30;90.17
55604;BME280;41468;48.838;9.330;2023-02-15T06:40:32;99612.59;;;-1.39;87.58
55604;BME280;41468;48.838;9.330;2023-02-15T06:42:58;99617.50;;;-1.63;87.56
55604;BME280;41468;48.838;9.330;2023-02-15T06:45:25;99622.84;;;-1.63;87.69
55604;BME280;41468;48.838;9.330;2023-02-15T06:47:52;99623.59;;;-1.67;87.73
55604;BME280;41468;48.838;9.330;2023-02-15T06:50:18;99623.41;;;-1.61;88.25
55604;BME280;41468;48.838;9.330;2023-02-15T06:52:45;99613.97;;;-1.68;88.17
55604;BME280;41468;48.838;9.330;2023-02-15T06:55:11;99620.47;;;-1.59;88.94
55604;BME280;41468;48.838;9.330;2023-02-15T06:57:38;99626.97;;;-1.50;89.23
55604;BME280;41468;48.838;9.330;2023-02-15T07:00:05;99624.78;;;-1.58;89.77
55604;BME280;41468;48.838;9.330;2023-02-15T07:02:32;99618.53;;;-0.89;87.38
55604;BME280;41468;48.838;9.330;2023-02-15T07:04:58;99624.44;;;-1.29;88.09
55604;BME280;41468;48.838;9.330;2023-02-15T07:07:25;99628.50;;;-1.22;89.07
55604;BME280;41468;48.838;9.330;2023-02-15T07:09:52;99622.06;;;-1.26;89.12
55604;BME280;41468;48.838;9.330;2023-02-15T07:12:19;99617.75;;;-1.27;91.30
55604;BME280;41468;48.838;9.330;2023-02-15T07:15:04;99617.22;;;-0.81;87.22
55604;BME280;41468;48.838;9.330;2023-02-15T07:17:33;99615.47;;;-1.08;88.05
55604;BME280;41468;48.838;9.330;2023-02-15T07:22:36;99627.47;;;-1.16;89.59
55604;BME280;41468;48.838;9.330;2023-02-15T07:25:08;99638.84;;;-0.98;89.94
55604;BME280;41468;48.838;9.330;2023-02-15T07:27:35;99630.50;;;-1.07;90.52
55604;BME280;41468;48.838;9.330;2023-02-15T07:30:02;99636.38;;;-1.10;91.18
55604;BME280;41468;48.838;9.330;2023-02-15T07:32:34;99628.91;;;-1.03;91.73
55604;BME280;41468;48.838;9.330;2023-02-15T07:35:00;99636.84;;;-0.76;91.03
55604;BME280;41468;48.838;9.330;2023-02-15T07:37:27;99632.63;;;-0.61;90.56
55604;BME280;41468;48.838;9.330;2023-02-15T07:39:54;99631.31;;;-0.59;90.33
55604;BME280;41468;48.838;9.330;2023-02-15T07:42:21;99633.66;;;-0.68;91.03
55604;BME280;41468;48.838;9.330;2023-02-15T07:44:48;99625.09;;;-0.59;90.75
55604;BME280;41468;48.838;9.330;2023-02-15T07:47:15;99620.63;;;-0.38;90.04
55604;BME280;41468;48.838;9.330;2023-02-15T07:49:42;99609.59;;;-0.47;90.17
55604;BME280;41468;48.838;9.330;2023-02-15T07:52:08;99614.47;;;-0.39;90.54
55604;BME280;41468;48.838;9.330;2023-02-15T07:54:35;99611.72;;;-0.54;91.43
55604;BME280;41468;48.838;9.330;2023-02-15T07:57:02;99613.13;;;-0.36;91.12
55604;BME280;41468;48.838;9.330;2023-02-15T07:59:28;99617.38;;;-0.51;91.82
55604;BME280;41468;48.838;9.330;2023-02-15T08:01:55;99619.59;;;-0.32;90.73
55604;BME280;41468;48.838;9.330;2023-02-15T08:04:23;99615.84;;;-0.31;90.36
55604;BME280;41468;48.838;9.330;2023-02-15T08:06:53;99613.97;;;-0.26;90.72
55604;BME280;41468;48.838;9.330;2023-02-15T08:09:20;99605.34;;;-0.33;91.21
55604;BME280;41468;48.838;9.330;2023-02-15T08:11:48;99615.38;;;-0.03;89.93
55604;BME280;41468;48.838;9.330;2023-02-15T08:14:20;99610.84;;;0.34;88.41
55604;BME280;41468;48.838;9.330;2023-02-15T08:16:50;99624.53;;;0.37;88.48
55604;BME280;41468;48.838;9.330;2023-02-15T08:19:18;99614.88;;;0.26;89.46
55604;BME280;41468;48.838;9.330;2023-02-15T08:21:51;99614.84;;;0.16;89.71
55604;BME280;41468;48.838;9.330;2023-02-15T08:24:24;99635.00;;;0.24;90.05
55604;BME280;41468;48.838;9.330;2023-02-15T08:26:51;99620.50;;;0.19;89.36
55604;BME280;41468;48.838;9.330;2023-02-15T08:29:20;99624.25;;;0.24;89.96
55604;BME280;41468;48.838;9.330;2023-02-15T08:31:49;99625.88;;;0.19;90.51
55604;BME280;41468;48.838;9.330;2023-02-15T08:34:18;99626.69;;;0.46;89.16
55604;BME280;41468;48.838;9.330;2023-02-15T08:36:46;99623.75;;;0.16;89.45
55604;BME280;41468;48.838;9.330;2023-02-15T08:39:13;99620.22;;;0.21;89.75
55604;BME280;41468;48.838;9.330;2023-02-15T08:41:45;99627.50;;;0.36;89.48
55604;BME280;41468;48.838;9.330;2023-02-15T08:44:14;99629.38;;;0.51;87.51
55604;BME280;41468;48.838;9.330;2023-02-15T08:46:43;99629.41;;;0.40;88.27
55604;BME280;41468;48.838;9.330;2023-02-15T08:49:13;99630.19;;;0.56;87.98
55604;BME280;41468;48.838;9.330;2023-02-15T08:51:41;99626.69;;;0.46;88.23
55604;BME280;41468;48.838;9.330;2023-02-15T08:54:12;99629.13;;;0.42;88.95
55604;BME280;41468;48.838;9.330;2023-02-15T08:56:40;99629.94;;;0.68;87.65
55604;BME280;41468;48.838;9.330;2023-02-15T08:59:19;99622.13;;;0.72;87.64
55604;BME280;41468;48.838;9.330;2023-02-15T09:01:47;99619.19;;;0.73;87.78
55604;BME280;41468;48.838;9.330;2023-02-15T09:04:15;99620.78;;;0.79;87.50
55604;BME280;41468;48.838;9.330;2023-02-15T09:06:53;99615.38;;;0.95;86.82
55604;BME280;41468;48.838;9.330;2023-02-15T09:09:21;99619.41;;;1.02;86.40
55604;BME280;41468;48.838;9.330;2023-02-15T09:11:49;99610.22;;;1.08;85.61
55604;BME280;41468;48.838;9.330;2023-02-15T09:14:24;99606.75;;;1.03;85.91
55604;BME280;41468;48.838;9.330;2023-02-15T09:16:53;99608.91;;;1.01;86.51
55604;BME280;41468;48.838;9.330;2023-02-15T09:19:23;99598.56;;;1.39;85.39
55604;BME280;41468;48.838;9.330;2023-02-15T09:21:50;99592.00;;;1.60;84.65
55604;BME280;41468;48.838;9.330;2023-02-15T09:24:18;99597.19;;;1.96;82.33
55604;BME280;41468;48.838;9.330;2023-02-15T09:26:49;99587.09;;;2.17;82.50
55604;BME280;41468;48.838;9.330;2023-02-15T09:29:17;99591.22;;;2.04;83.35
55604;BME280;41468;48.838;9.330;2023-02-15T09:31:46;99592.00;;;2.44;81.33
55604;BME280;41468;48.838;9.330;2023-02-15T09:34:17;99592.22;;;2.53;81.17
55604;BME280;41468;48.838;9.330;2023-02-15T09:36:45;99596.66;;;2.68;79.96
55604;BME280;41468;48.838;9.330;2023-02-15T09:39:24;99589.88;;;2.70;78.92
55604;BME280;41468;48.838;9.330;2023-02-15T09:42:11;99580.97;;;2.75;79.39
55604;BME280;41468;48.838;9.330;2023-02-15T09:48:01;99573.78;;;2.89;79.16
55604;BME280;41468;48.838;9.330;2023-02-15T09:56:32;99575.38;;;3.81;75.66
55604;BME280;41468;48.838;9.330;2023-02-15T09:59:12;99566.38;;;3.67;75.76
55604;BME280;41468;48.838;9.330;2023-02-15T10:02:13;99567.13;;;4.10;74.55
55604;BME280;41468;48.838;9.330;2023-02-15T10:12:53;99549.50;;;5.06;71.21
55604;BME280;41468;48.838;9.330;2023-02-15T10:18:01;99559.22;;;4.93;71.26
55604;BME280;41468;48.838;9.330;2023-02-15T10:25:50;99545.88;;;4.04;75.33
55604;BME280;41468;48.838;9.330;2023-02-15T10:28:49;99555.47;;;4.29;75.67
55604;BME280;41468;48.838;9.330;2023-02-15T10:34:43;99543.00;;;4.47;75.97
55604;BME280;41468;48.838;9.330;2023-02-15T10:40:08;99534.59;;;4.48;76.21
55604;BME280;41468;48.838;9.330;2023-02-15T10:42:46;99529.50;;;4.60;75.27
55604;BME280;41468;48.838;9.330;2023-02-15T10:45:31;99527.16;;;4.86;75.47
55604;BME280;41468;48.838;9.330;2023-02-15T10:50:59;99521.84;;;5.09;76.12
55604;BME280;41468;48.838;9.330;2023-02-15T11:07:23;99499.22;;;5.78;73.88
55604;BME280;41468;48.838;9.330;2023-02-15T11:10:04;99499.59;;;6.21;72.68
55604;BME280;41468;48.838;9.330;2023-02-15T11:12:34;99500.59;;;6.34;71.60
55604;BME280;41468;48.838;9.330;2023-02-15T11:15:21;99500.97;;;6.41;71.56
55604;BME280;41468;48.838;9.330;2023-02-15T11:18:09;99487.94;;;6.83;69.62
55604;BME280;41468;48.838;9.330;2023-02-15T11:20:43;99484.78;;;6.98;69.82
55604;BME280;41468;48.838;9.330;2023-02-15T11:23:15;99484.69;;;7.12;69.70
55604;BME280;41468;48.838;9.330;2023-02-15T11:25:45;99487.09;;;7.31;68.78
55604;BME280;41468;48.838;9.330;2023-02-15T11:28:47;99484.75;;;7.73;67.76
55604;BME280;41468;48.838;9.330;2023-02-15T11:31:25;99485.69;;;7.60;68.05
55604;BME280;41468;48.838;9.330;2023-02-15T11:33:57;99478.50;;;7.81;67.04
55604;BME280;41468;48.838;9.330;2023-02-15T11:36:28;99475.63;;;7.86;66.71
55604;BME280;41468;48.838;9.330;2023-02-15T11:39:02;99471.94;;;8.00;66.23
55604;BME280;41468;48.838;9.330;2023-02-15T11:41:34;99474.50;;;7.96;66.14
55604;BME280;41468;48.838;9.330;2023-02-15T11:44:13;99481.63;;;8.35;65.68
55604;BME280;41468;48.838;9.330;2023-02-15T11:46:42;99476.84;;;8.24;65.61
55604;BME280;41468;48.838;9.330;2023-02-15T11:49:23;99474.94;;;8.33;65.78
55604;BME280;41468;48.838;9.330;2023-02-15T11:51:54;99476.56;;;7.99;67.03
55604;BME280;41468;48.838;9.330;2023-02-15T11:54:26;99487.25;;;8.30;66.45
55604;BME280;41468;48.838;9.330;2023-02-15T11:56:56;99478.94;;;8.44;66.35
55604;BME280;41468;48.838;9.330;2023-02-15T11:59:35;99479.53;;;8.32;66.42
55604;BME280;41468;48.838;9.330;2023-02-15T12:02:20;99476.38;;;8.39;66.45
55604;BME280;41468;48.838;9.330;2023-02-15T12:05:13;99473.59;;;8.56;66.28
55604;BME280;41468;48.838;9.330;2023-02-15T12:07:46;99482.25;;;8.58;66.40
55604;BME280;41468;48.838;9.330;2023-02-15T12:10:26;99473.38;;;8.70;65.69
55604;BME280;41468;48.838;9.330;2023-02-15T12:13:17;99466.66;;;9.06;64.96
55604;BME280;41468;48.838;9.330;2023-02-15T12:15:57;99473.75;;;8.98;64.94
55604;BME280;41468;48.838;9.330;2023-02-15T12:21:39;99460.41;;;9.05;65.32
55604;BME280;41468;48.838;9.330;2023-02-15T12:24:21;99450.56;;;9.13;64.54
55604;BME280;41468;48.838;9.330;2023-02-15T12:29:30;99447.47;;;9.44;64.11
55604;BME280;41468;48.838;9.330;2023-02-15T12:31:57;99447.97;;;9.67;62.68
55604;BME280;41468;48.838;9.330;2023-02-15T12:34:29;99454.13;;;9.77;63.38
55604;BME280;41468;48.838;9.330;2023-02-15T12:37:01;99437.09;;;9.59;63.38
55604;BME280;41468;48.838;9.330;2023-02-15T12:39:30;99439.22;;;9.74;62.85
55604;BME280;41468;48.838;9.330;2023-02-15T12:42:15;99434.72;;;9.57;63.67
55604;BME280;41468;48.838;9.330;2023-02-15T12:47:22;99431.41;;;9.72;63.67
55604;BME280;41468;48.838;9.330;2023-02-15T12:50:12;99429.75;;;9.92;62.37
55604;BME280;41468;48.838;9.330;2023-02-15T12:52:47;99429.66;;;10.01;61.90
55604;BME280;41468;48.838;9.330;2023-02-15T12:55:26;99425.59;;;10.53;60.59
55604;BME280;41468;48.838;9.330;2023-02-15T12:58:15;99415.50;;;10.53;59.45
55604;BME280;41468;48.838;9.330;2023-02-15T13:00:44;99415.69;;;10.36;59.61
55604;BME280;41468;48.838;9.330;2023-02-15T13:03:20;99415.25;;;10.46;58.83
55604;BME280;41468;48.838;9.330;2023-02-15T13:05:50;99413.19;;;9.98;60.61
55604;BME280;41468;48.838;9.330;2023-02-15T13:08:28;99412.09;;;10.23;60.00
55604;BME280;41468;48.838;9.330;2023-02-15T13:11:06;99403.63;;;10.49;60.09
55604;BME280;41468;48.838;9.330;2023-02-15T13:13:35;99402.53;;;10.75;58.59
55604;BME280;41468;48.838;9.330;2023-02-15T13:16:06;99396.19;;;10.25;59.94
55604;BME280;41468;48.838;9.330;2023-02-15T13:18:44;99385.66;;;10.97;58.92
55604;BME280;41468;48.838;9.330;2023-02-15T13:21:17;99382.94;;;10.73;59.09
55604;BME280;41468;48.838;9.330;2023-02-15T13:23:51;99374.13;;;11.44;56.97
55604;BME280;41468;48.838;9.330;2023-02-15T13:26:21;99381.41;;;11.53;57.38
55604;BME280;41468;48.838;9.330;2023-02-15T13:28:53;99374.56;;;11.46;56.88
55604;BME280;41468;48.838;9.330;2023-02-15T13:31:24;99364.22;;;11.68;56.08
55604;BME280;41468;48.838;9.330;2023-02-15T13:33:59;99370.69;;;11.76;55.64
55604;BME280;41468;48.838;9.330;2023-02-15T13:36:34;99361.66;;;11.87;55.73
55604;BME280;41468;48.838;9.330;2023-02-15T13:39:25;99364.44;;;11.75;56.34
55604;BME280;41468;48.838;9.330;2023-02-15T13:45:00;99358.22;;;11.62;56.05
55604;BME280;41468;48.838;9.330;2023-02-15T13:47:45;99349.56;;;11.60;55.68
55604;BME280;41468;48.838;9.330;2023-02-15T14:01:46;99340.25;;;10.68;58.94
55604;BME280;41468;48.838;9.330;2023-02-15T14:06:58;99338.09;;;10.49;60.03
55604;BME280;41468;48.838;9.330;2023-02-15T14:15:25;99328.75;;;10.50;60.81
55604;BME280;41468;48.838;9.330;2023-02-15T14:21:28;99331.50;;;10.63;61.46
55604;BME280;41468;48.838;9.330;2023-02-15T14:26:51;99331.16;;;10.52;62.01
55604;BME280;41468;48.838;9.330;2023-02-15T14:29:53;99336.06;;;10.46;62.33
55604;BME280;41468;48.838;9.330;2023-02-15T14:32:32;99333.88;;;10.39;62.79
55604;BME280;41468;48.838;9.330;2023-02-15T14:35:01;99333.09;;;10.51;62.71
55604;BME280;41468;48.838;9.330;2023-02-15T14:49:12;99335.31;;;10.12;63.13
55604;BME280;41468;48.838;9.330;2023-02-15T14:54:07;99347.94;;;10.05;63.69
55604;BME280;41468;48.838;9.330;2023-02-15T14:56:34;99335.09;;;10.05;63.97
55604;BME280;41468;48.838;9.330;2023-02-15T15:01:40;99324.69;;;10.32;62.81
55604;BME280;41468;48.838;9.330;2023-02-15T15:04:11;99333.09;;;10.39;62.62
55604;BME280;41468;48.838;9.330;2023-02-15T15:06:43;99332.28;;;10.26;62.63
55604;BME280;41468;48.838;9.330;2023-02-15T15:09:25;99329.41;;;10.23;63.05
55604;BME280;41468;48.838;9.330;2023-02-15T15:12:12;99326.91;;;10.17;63.50
55604;BME280;41468;48.838;9.330;2023-02-15T15:14:42;99326.78;;;10.14;63.73
55604;BME280;41468;48.838;9.330;2023-02-15T15:17:11;99331.78;;;10.00;64.29
55604;BME280;41468;48.838;9.330;2023-02-15T15:22:18;99332.69;;;9.91;64.45
55604;BME280;41468;48.838;9.330;2023-02-15T15:24:46;99334.16;;;9.89;64.57
55604;BME280;41468;48.838;9.330;2023-02-15T15:32:53;99324.34;;;9.76;64.91
55604;BME280;41468;48.838;9.330;2023-02-15T15:36:07;99327.75;;;9.72;64.95
55604;BME280;41468;48.838;9.330;2023-02-15T15:38:59;99325.44;;;9.62;65.54
55604;BME280;41468;48.838;9.330;2023-02-15T15:41:43;99325.88;;;9.64;65.54
55604;BME280;41468;48.838;9.330;2023-02-15T15:49:54;99324.63;;;9.28;67.56
55604;BME280;41468;48.838;9.330;2023-02-15T15:52:22;99326.03;;;9.14;68.25
55604;BME280;41468;48.838;9.330;2023-02-15T15:55:03;99326.28;;;9.21;67.86
55604;BME280;41468;48.838;9.330;2023-02-15T15:57:38;99329.28;;;9.07;68.43
55604;BME280;41468;48.838;9.330;2023-02-15T16:02:53;99328.47;;;8.85;69.67
55604;BME280;41468;48.838;9.330;2023-02-15T16:05:20;99333.22;;;8.76;70.27
55604;BME280;41468;48.838;9.330;2023-02-15T16:07:53;99337.56;;;8.69;70.19